Timeline UpdatesTrip UpdatesNews PostsPvt PostsTravel TipsAdmin PostsConv PostsFollowed PostsChat RequestsBlog PostsPNR Posts

Disclaimer
Search
 
 
Tue Sep 2, 2014 00:18:13 ISTHomeTrainsΣChainsAtlasPNRForumGalleryNewsFAQTripsMembersLoginFeedback
No Recent News for this Train
Other Trains in the News **new
Latest...
.
Tue Dec 31, 2013 (01:08PM)
⇐ Return Journey: Train# 12971

12972/Bhavnagar Bandra Express

Time-Table HAS CHANGED.
Yesterday (2:28PM)
Change Departure Station:
Change Arrival Station:
Post a Train Travel TipPost a Train Travel Tip **new
Post a Comment/Question/Picture/VideoPost a Comment/Question/Picture/Video
Pantry/Catering
✕ NO Pantry Car
✓ Catering Avbl
RSA - Rake Sharing
No RSA
Rake/Coach Composition
LOCO-SLR-GEN-GEN-S1-S2-S3-S4-S5-S6-S7-S8-S9-S10-S11-S12-B1-B2-A1-GEN-GEN-SLR
Loco
BVC=>ADI: VTA WDM 3A ADI=>BDTS: BRC WAP 4/4E/5
News    PNR    Forum    Time-Table    Availability    Fare Chart    Map    Arr/Dep History    Trips    Gallery    ΣChains    X/O    Timeline    
Travel Time: 8h 8m    8 halts    Distance: 482 km    Avg Speed: 59 km/hr
Type: SuperFast
Zone: WR/Western
Departs @ 02:12
Platform# 6
SMTWTFS
Ahmedabad Junction/ADI 
Arrives @ 10:20
Platform# 3
SMTWTFS
Mumbai Bandra Terminus/BDTS 

8 halts. 96 intermediate Stations between Ahmedabad Junction and Mumbai Bandra Terminus

Hide intermediate Stations  Show Old Time-Table

#CodeStation NameX/OArrivesAvgDepartsAvgHaltPFDay#KmSpeedElevZoneAddress
1BVCBhavnagar Terminus (2)  -20:30-11-298.34111mWRBhavnagar, Gujarat
2BVPBhavnagar Para  20:34-20:36-2m--1-295.65613mWRBhavnagar, Gujarat
2.1NRODNari Road  20:40-20:40-  1-291.5 5617mWRSH 6, Gujarat
2.2VTJVartejX  20:44-20:44-  1-288.4 5624mWRBhavnagar, Gujarat
2.3KDMRKodiyar Mandir  20:49-20:49-  1-283.1 5692mWRSH 21, Gujarat
3SOJNSihor Gujarat  20:55-20:57-2m--1-277.96442mWRShihor, Gujarat
3.1MTSKMota Surka  21:01-21:01-  1-274.0 6440mWRState Highway 25, Gujarat
4SGDSongadh (1)  21:04-21:06-2m11-270.46440mWRBhavnagar, Gujarat
4.1BJUDBajud  21:12-21:12-  1-264.3 6437mWRState Highway 31, Gujarat
4.2SOASanosra  21:16-21:16-  1-260.0 6436mWRState Highway 25, Gujarat
5DLJDhola Junction  21:26-21:28-2m21-249.07237mWRDhola, Gujarat
5.1UJUjalvavX  21:37-21:37-  1-238.8 7264mWRState Highway 31, Gujarat
5.2ALMRAlampur  21:42-21:42-  1-232.1 7259mWRState Highway 31, Gujarat
5.3NGANingala Junction  21:48-21:48-  1-224.6 7257mWRState Highway 117, Gujarat
5.4LTDLathidad  21:55-21:55-  1-217.1 7268mWRTajpar Rd, Gujarat
6BTDBotad Junction (5)O  22:04-22:06-2m11-206.17896mWRBotad, Gujarat
6.1KDIKundli  22:15-22:15-  1-194.7 7886mWRState Highway 38, Gujarat
7RURRanpur  22:23-22:25-2m--1-183.98361mWRRanpur, Gujarat
7.1VJKVejalka  22:30-22:30-  1-176.6 8366mWRState Highway 38, Gujarat
7.2CDAChuda  22:37-22:37-  1-167.6 8363mWRState Highway 38, Gujarat
8LMLimbdi (1)  22:44-22:46-2m11-157.68051mWRLimbdi, Gujarat
8.1WCWadhwan City  23:01-23:01-  1-137.3 8067mWRSurendranagar, Gujarat
9JVNJorawarnagar Junction (1)  23:04-23:06-2m11-133.74469mWRSurendra Nagar, Gujarat
9.1SRGTSurendranagar Gate (1)  23:10-23:10-  1-130.9 4471mWRSurendranagar, Gujarat
9.2BLRDBala Road  23:23-23:23-  1-121.5 4461mWRState Highway 19, Gujarat
9.3BRGPBajrangpura  23:32-23:32-  1-115.0 4449mWRBajrangpura, Gujarat
9.4LTRLakhtarX  23:39-23:39-  1-109.8 4451mWRLakhtar, Gujarat
9.5KXZKesariya Road  23:47-23:47-  1-103.9 4433mWRState Highway 17, Gujarat
9.6LPRLilapur Road  23:56-23:56-  1-97.5 4424mWRState Highway 17, Gujarat
9.7BMMBhaskarpara  00:05-00:05-  2-90.8 4417mWRNational Highway 947, Gujarat
9.8SRSabli Road  00:15-00:15-  2-83.9 4420mWRState Highway 17, Gujarat
9.9KHRSKhareshwar Road  00:20-00:20-  2-80.0 4421mWRState Highway 7, Gujarat
9.10VNRDVani Road  00:26-00:26-  2-75.8 4425mWRState Highway 17, Gujarat
10VGViramgam Junction (5)  00:40-00:42-2m22-65.45629mWRViramgam, Gujarat
10.1XSKSokali  00:49-00:49-  2-59.2 5627mWRSokali, Gujarat
10.2JKAJakhvadaX  00:55-00:55-  2-53.1 5631mWRState Highway 17, Gujarat
10.3VCNVirochannagar  01:03-01:03-  2-45.4 5633mWRState Highway 17, Gujarat
10.4CEChharodi  01:10-01:10-  2-39.1 5629mWRSH 17, Gujarat
10.5WSEVasan Iyawa  01:16-01:16-  2-33.4 5636mWRState Highway 17, Gujarat
10.6SAUSanand  01:22-01:22-  2-28.4 5640mWRSanand, Gujarat
10.7GGMGora GhumaX  01:28-01:28-  2-22.1 5645mWRParthna Upvan Rd, Gujarat
10.8ABDAmbli Road  01:34-01:34-  2-16.8 5650mWRAhmedabad, Gujarat
10.9CLDYChandlodiya  01:40-01:40-  2-11.1 5659mWRAhmedabad, Gujarat
10.10SBTFSabarmati F Cabin  01:45-01:45-  2-6.4 5655mWRAhmedabad, Gujarat
10.11SBISabarmati Junction (3)  01:46-01:46-  2-5.5 5655mWRAhmadabad, Gujarat
10.12SBTSabarmati Junction (3)  01:46-01:46-  2-5.5 5652mWRAhmedabad, Gujarat
10.13SBTASabarmati A Cabin  01:49-01:49-  2-3.1 5656mWRSabarmati A Cabin, Gujarat
11ADI»Ahmedabad Junction (12)»X  01:52-02:12-20m620.06451mWRAhmedabad, Gujarat
11.1KKFKankaria  02:14-02:14-  21.8 6448mWRAhmedabad, Gujarat
11.2MANManinagar (2)  02:15-02:15-  23.2 6450mWRAhmadabad, Gujarat
11.3VTAVatva (4)  02:20-02:20-  28.0 6449mWRDist. Ahmedabad 382445, Gujarat
11.4GERGeratpur (2)  02:25-02:25-  213.3 6444mWRAhmadabad, Gujarat
11.5BJDBarejadi Nandej (3)X  02:28-02:28-  216.6 6442mWRBareja-Barejadi Rd, Gujarat
11.6KANJKanij (3)  02:32-02:32-  221.0 6439mWRBareja-Barejadi Rd, Gujarat
11.7NEPNenpur (2)O  02:35-02:35-  223.8 6435mWRState Highway 3, Gujarat
11.8MHDMahemdavad Kheda Road (4)  02:38-02:38-  228.0 6437mWRMahemdavad, Gujarat
11.9GTEGothaj (2)X  02:46-02:46-  236.3 6432mWRState Highway 3, Gujarat
12NDNadiad Junction (4)X  02:55-02:57-2m1245.66237mWRNadiad, Gujarat
12.1UTDUtarsanda (4)X  03:02-03:02-  251.1 6240mWRUttarsanda, Gujarat
12.2KBRVKanjari Boriyavi Junction (4)X  03:08-03:08-  256.6 6239mWRKanjari, Gujarat
13ANNDAnand Junction (6)X  03:15-03:17-2m--264.15044mWRAnand, Gujarat
13.1VXDVadod (3)  03:25-03:25-  270.9 5044mWRAnand District, Gujarat
13.2ADDAdas Road (4)  03:30-03:30-  275.0 5042mWRNational Highway 8, Gujarat
13.3VDAVasad Junction (3)  03:36-03:36-  279.6 5040mWRVasad, Gujarat
13.4NDRNandesari (2)X  03:42-03:42-  284.6 5042mWRNandesari, Gujarat
13.5RNORanoli (2)  03:47-03:47-  288.8 5039mWRVadodara District, Gujarat
13.6KRCAKarachiya Yard  03:49-03:49-  290.6 5039mWRVadodara, Gujarat
13.7BJWBajva (3)  03:51-03:51-  292.6 5038mWRVadodara, Gujarat
13.8BRGYVadodara D Cabin  03:59-03:59-  299.2 5036mWRVadodara, Gujarat
14BRCVadodara Junction (7)XO  04:00-04:05-5m3299.87436mWRVadodara 390005, Gujarat
14.1VSVishvamitri (4)X  04:07-04:07-  2102.8 7430mWRVadodara, Gujarat
14.2MPRMakarpura (4)  04:12-04:12-  2108.5 7430mWRVadodara, Gujarat
14.3VRMVarnama (2)X  04:17-04:17-  2114.1 7428mWRVadodara, Gujarat
14.4ITAItola (4)X  04:20-04:20-  2118.1 7427mWRNational Highway 8 Vadodara, Gujarat
14.5KSPRKashipura Sarar (2)XO  04:23-04:23-  2121.9 7426mWRGIDC Industrial Area, Gujarat
14.6MYGMiyagam Karjan (2)  04:29-04:29-  2129.6 7429mWRKarjan, Gujarat
14.7MYGLMiyagam Karjan Junction NGX  04:29-04:29-  2129.7 740mWRKarjan, Gujarat
14.8LKDLakodara (4)X  04:36-04:36-  2137.7 7426mWRNH 8, Gujarat
14.9PLJPalej (4)X  04:41-04:41-  2144.9 7429mWRPalej, Gujarat
14.10VREVarediya (4)X  04:47-04:47-  2151.5 7421mWRNH 8, Gujarat
14.11NIUNabipur (3)X  04:52-04:52-  2158.3 7424mWRNabipur, Gujarat
14.12CVJChavaj (2)X  04:58-04:58-  2165.3 7420mWRBharuch, Gujarat
14.13BHBharuch Junction (5)X  05:02-05:02-  2170.3 7419mWRBharuch, Gujarat
14.14AKVAnkleshwar Junction (4)  05:10-05:10-  2179.7 7419mWRAnkleshwar, Gujarat
14.15SNJLSanjali (2)X  05:15-05:15-  2185.8 7423mWRSanjali, Gujarat
14.16PAOPanoli (3)  05:18-05:18-  2190.0 7429mWRPanoli, Gujarat
14.17HATHathuran (2)X  05:21-05:21-  2193.8 7432mWRKosamba, Gujarat
14.18KSBKosamba Junction (3)X  05:25-05:25-  2198.2 7430mWRKosamba, Gujarat
14.19KIMKim (2)O  05:31-05:31-  2206.0 7418mWRNH 8, Gujarat
14.20KDSDKudsad (2)  05:33-05:33-  2208.8 7418mWRNH 8, Gujarat
14.21SYNSayan (3)X  05:39-05:39-  2215.9 7421mWRSayan Satellite town, Gujarat
14.22GTXGothangam (2)  05:41-05:41-  2218.9 7419mWRAmroli Sayan Rd, Gujarat
14.23KSEKosad (2)  05:44-05:44-  2222.5 7417mWRSurat, Gujarat
14.24URNUtran (3)X  05:47-05:47-  2225.7 7415mWRSurat, Gujarat
15STSurat (4)X  05:50-05:55-5m32229.65619mWRSurat 395001, Gujarat
15.1UDNUdhna Junction (3)  05:59-05:59-  2233.6 5616mWRUdhna 394210, Gujarat
15.2BHETBhestan (2)  06:04-06:04-  2238.4 5613mWRSurat, Gujarat
15.3SCHSachin (3)O  06:10-06:10-  2244.1 5611mWRKansad Road Sachin, Gujarat
15.4MRLMaroli (3)  06:17-06:17-  2250.8 5615mWRMaroli, Gujarat
15.5NVSNavsari (3)  06:26-06:26-  2259.2 5614mWRNavsari, Gujarat
15.6GNSTGandhi Smriti (2)  06:30-06:30-  2262.2 5616mWRGandhi Smriti Navsari, Gujarat
15.7HXRHansapore (2)  06:31-06:31-  2263.8 5615mWRHansapore, Gujarat
15.8VDHVedchha (3)  06:35-06:35-  2267.6 5613mWRNavsari, Gujarat
15.9ACLAncheli (2)X  06:39-06:39-  2271.0 5620mWRNavsari, Gujarat
15.10AMLAmalsad (3)O  06:43-06:43-  2274.8 5612mWRAmalsad, Gujarat
15.11BIMBilimora Junction (4)  06:49-06:49-  2280.4 5611mWRBilimora, Gujarat
15.12JRSJoravasan (2)  06:53-06:53-  2284.3 5615mWRJoravasan, Gujarat
15.13DGIDungri (3)X  06:59-06:59-  2289.4 5620mWRNH 8, Gujarat
16BLValsad (3)  07:08-07:10-2m32298.37915mWRValsad, Gujarat
16.1ATULAtul (3)  07:15-07:15-  2305.0 7922mWRValsad, Gujarat
16.2PADPardi (3)X  07:18-07:18-  2309.0 7919mWRValsad, Gujarat
16.3UVDUdvada (3)  07:23-07:23-  2315.0 7918mWRUdvada, Gujarat
16.4BAGDBagwada (2)X  07:25-07:25-  2317.9 7922mWRNH8, Gujarat
17VAPIVapi (3)  07:32 07:30-07:34 07:32-2m22324.67527mWRVapi, Gujarat
17.1KEBKarambeli (2)  07:37-07:37-  2331.0 7529mWRNational Highway 8, Gujarat
17.2BLDBhilad (3)X  07:41-07:41-  2335.8 7533mWRBhilad, Gujarat
17.3SJNSanjan (3)XO  07:50-07:50-  2347.4 7522mWRSanjan, Gujarat
17.4UBRUmbargam Road (3)  07:55-07:55-  2352.8 7530mWRUmbergaon, Gujarat
17.5BRRDBordi Road (2)X  07:58-07:58-  2357.0 7517mWRBordi, Maharashtra
17.6GVDGholvad (4)X  08:02-08:02-  2361.9 7514mWRGholvad, Maharashtra
17.7DRDDahanu Road (5)  08:11-08:11-  2373.1 7512mWRDahanu, Maharashtra
17.8VGNVangaon (3)X  08:21-08:21-  2385.4 7511mWRDist. Palghar, Maharashtra
17.9BORBoisar (3)X  08:28-08:28-  2394.8 7517mWRBoisar Tel.no-02525-266626, Maharashtra
17.10UOIUmroli (2)  08:32-08:32-  2399.7 758mWRBoisar, Maharashtra
17.11PLGPalghar (3)  08:37-08:37-  2406.1 7519mWRPalghar, Maharashtra
17.12KLVKelve Road (3)  08:44-08:44-  2414.5 7510mWRDist. Palghar, Maharashtra
17.13SAHSaphale (2)X  08:49-08:49-  2420.9 758mWRDist. Palghar, Maharashtra
17.14VTNVaitarna (2)X  08:55-08:55-  2428.7 753mWRDist. Palghar, Maharashtra
17.15VRVirar (8)  09:02-09:02-  2437.2 756mWRDist. Palghar, Maharashtra
17.16NSPNallasopara (4)X  09:06-09:06-  2441.4 755mWRNallasopara station Rd, Maharashtra
17.17BSRVasai Road (7)  09:09-09:09-  2445.6 757mWRVasai 401202, Maharashtra
17.18NIGNaigaon (4)X  09:12-09:12-  2449.3 755mWRNaigaon West, Maharashtra
17.19BYRBhayandar (6)  09:16-09:16-  2454.0 756mWRThane, Maharashtra
17.20MIRAMira Road (4)  09:18-09:18-  2457.3 753mWRMira Bhayandar, Maharashtra
17.21DICDahisar (4)  09:21-09:21-  2460.7 7514mWRMumbai, Maharashtra
18BVIMumbai Borivali (8)  09:23-09:25-2m62463.03019mWRMumbai - 400092, Maharashtra
18.1KILEKandivli (4)  09:30-09:30-  2465.8 3014mWRMumbai, Maharashtra
18.2MDDMalad (4)  09:35-09:35-  2467.9 3018mWRMumbai-400064, Maharashtra
18.3GMNGoregaon (5)X  09:39-09:39-  2470.3 3015mWRMumbai - 400104, Maharashtra
18.4JOSJogeshwari (4)  09:46-09:46-  2473.4 3014mWRMumbai, Maharashtra
19ADHMumbai Andheri (9)  09:50-09:52-2m82475.61312mWRMumbai, Maharashtra
19.1VLPVille Parle (6)  10:01-10:01-  2477.6 1311mWRMumbai, Maharashtra
19.2STCSanta Cruz (6)  10:10-10:10-  2479.5 1310mWRMumbai, Maharashtra
19.3KHARKhar (6)  10:16-10:16-  2480.9 137mWRMumbai, Maharashtra
20BDTS•Mumbai Bandra Terminus (5)•  10:20--32481.8-4mWRMumbai 400050, Maharashtra
Scroll to Top
Scroll to Bottom